createdAt,value
2024-01-05T00:00:03.641Z,92057.00
2024-01-05T00:01:03.690Z,92058.00
2024-01-05T00:02:03.536Z,92057.00
2024-01-05T00:03:03.554Z,92054.00
2024-01-05T00:04:03.591Z,92053.00
2024-01-05T00:05:03.515Z,92051.00
2024-01-05T00:06:03.580Z,92053.00
2024-01-05T00:07:03.486Z,92051.00
2024-01-05T00:08:03.439Z,92050.00
2024-01-05T00:09:03.452Z,92055.00
2024-01-05T00:10:03.419Z,92052.00
2024-01-05T00:11:03.402Z,92045.00
2024-01-05T00:13:03.374Z,92043.00
2024-01-05T00:14:03.355Z,92040.00
2024-01-05T00:15:03.398Z,92035.00
2024-01-05T00:16:03.329Z,92031.00
2024-01-05T00:17:03.328Z,92027.00
2024-01-05T00:18:03.377Z,92026.00
2024-01-05T00:19:03.345Z,92025.00
2024-01-05T00:20:03.318Z,92023.00
2024-01-05T00:21:03.294Z,92025.00
2024-01-05T00:22:03.245Z,92022.00
2024-01-05T00:23:03.222Z,92018.00
2024-01-05T00:24:03.240Z,92012.00
2024-01-05T00:25:03.205Z,92014.00
2024-01-05T00:26:03.195Z,92014.00
2024-01-05T00:27:03.191Z,92019.00
2024-01-05T00:28:03.140Z,92018.00
2024-01-05T00:29:03.126Z,92024.00
2024-01-05T00:30:03.159Z,92024.00
2024-01-05T00:31:03.203Z,92015.00
2024-01-05T00:32:03.081Z,92012.00
2024-01-05T00:33:03.174Z,92011.00
2024-01-05T00:34:03.140Z,92008.00
2024-01-05T00:35:03.009Z,92012.00
2024-01-05T00:36:03.034Z,92008.00
2024-01-05T00:37:02.986Z,92002.00
2024-01-05T00:38:02.951Z,92006.00
2024-01-05T00:39:02.913Z,92002.00
2024-01-05T00:40:02.889Z,92005.00
2024-01-05T00:41:02.866Z,92002.00
2024-01-05T00:42:02.870Z,92002.00
2024-01-05T00:43:02.822Z,92002.00
2024-01-05T00:44:02.810Z,92003.00
2024-01-05T00:45:02.833Z,92005.00
2024-01-05T00:46:02.771Z,92002.00
2024-01-05T00:47:02.735Z,92006.00
2024-01-05T00:48:02.859Z,92013.00
2024-01-05T00:49:02.720Z,92020.00
2024-01-05T00:50:02.687Z,92020.00
2024-01-05T00:51:02.686Z,92019.00
2024-01-05T00:52:02.694Z,92012.00
2024-01-05T00:53:02.633Z,92013.00
2024-01-05T00:54:02.635Z,92009.00
2024-01-05T00:55:02.613Z,92001.00
2024-01-05T00:56:02.601Z,92002.00
2024-01-05T00:57:02.632Z,92002.00
2024-01-05T00:58:02.594Z,92004.00
2024-01-05T00:59:02.579Z,92004.00
2024-01-05T01:00:02.618Z,92002.00
2024-01-05T01:01:02.619Z,92002.00
2024-01-05T01:02:02.536Z,92003.00
2024-01-05T01:03:02.637Z,92002.00
2024-01-05T01:04:02.671Z,91996.00
2024-01-05T01:05:02.542Z,91994.00
2024-01-05T01:06:02.539Z,91992.00
2024-01-05T01:07:02.491Z,91996.00
2024-01-05T01:08:02.476Z,91996.00
2024-01-05T01:09:02.481Z,91995.00
2024-01-05T01:10:02.448Z,91993.00
2024-01-05T01:11:02.450Z,92000.00
2024-01-05T01:12:02.478Z,92000.00
2024-01-05T01:13:02.438Z,91995.00
2024-01-05T01:14:02.478Z,91985.00
2024-01-05T01:15:02.466Z,91992.00
2024-01-05T01:16:02.459Z,91994.00
2024-01-05T01:17:02.423Z,91994.00
2024-01-05T01:18:02.502Z,91986.00
2024-01-05T01:19:02.750Z,91979.00
2024-01-05T01:20:02.388Z,91981.00
2024-01-05T01:21:02.429Z,91982.00
2024-01-05T01:22:02.387Z,91986.00
2024-01-05T01:23:02.401Z,91981.00
2024-01-05T01:24:02.517Z,91984.00
2024-01-05T01:25:02.406Z,91975.00
2024-01-05T01:26:02.416Z,91975.00
2024-01-05T01:27:02.403Z,91976.00
2024-01-05T01:28:02.397Z,91979.00
2024-01-05T01:29:02.379Z,91975.00
2024-01-05T01:30:02.575Z,91971.00
2024-01-05T01:31:02.471Z,91972.00
2024-01-05T01:32:02.380Z,91977.00
2024-01-05T01:33:02.450Z,91974.00
2024-01-05T01:34:02.488Z,91977.00
2024-01-05T01:35:02.457Z,91977.00
2024-01-05T01:36:02.581Z,91975.00
2024-01-05T01:37:02.501Z,91975.00
2024-01-05T01:38:02.547Z,91976.00
2024-01-05T01:39:02.607Z,91974.00
2024-01-05T01:40:02.574Z,91967.00
2024-01-05T01:41:02.604Z,91964.00
2024-01-05T01:42:02.719Z,91964.00
2024-01-05T01:43:02.744Z,91957.00
2024-01-05T01:44:02.680Z,91961.00
2024-01-05T01:45:02.704Z,91960.00
2024-01-05T01:46:02.651Z,91964.00
2024-01-05T01:47:02.639Z,91970.00
2024-01-05T01:48:02.716Z,91970.00
2024-01-05T01:49:02.750Z,91973.00
2024-01-05T01:50:02.648Z,91974.00
2024-01-05T01:51:02.604Z,91973.00
2024-01-05T01:52:02.588Z,91973.00
2024-01-05T01:53:02.583Z,91971.00
2024-01-05T01:54:02.610Z,91971.00
2024-01-05T01:55:02.545Z,91970.00
2024-01-05T01:56:02.519Z,91971.00
2024-01-05T01:57:02.524Z,91964.00
2024-01-05T01:58:02.499Z,91957.00
2024-01-05T01:59:02.549Z,91962.00
2024-01-05T02:00:02.628Z,91959.00
2024-01-05T02:01:02.493Z,91956.00
2024-01-05T02:02:02.485Z,91952.00
2024-01-05T02:03:02.582Z,91949.00
2024-01-05T02:04:02.595Z,91951.00
2024-01-05T02:05:02.592Z,91953.00
2024-01-05T02:06:02.555Z,91942.00
2024-01-05T02:07:02.495Z,91942.00
2024-01-05T02:08:02.501Z,91945.00
2024-01-05T02:09:02.580Z,91944.00
2024-01-05T02:10:02.517Z,91946.00
2024-01-05T02:11:02.482Z,91942.00
2024-01-05T02:12:02.489Z,91938.00
2024-01-05T02:13:02.426Z,91924.00
2024-01-05T02:14:02.412Z,91924.00
2024-01-05T02:15:02.476Z,91918.00
2024-01-05T02:16:02.441Z,91918.00
2024-01-05T02:17:02.389Z,91913.00
2024-01-05T02:18:02.532Z,91909.00
2024-01-05T02:19:02.521Z,91910.00
2024-01-05T02:20:02.332Z,91903.00
2024-01-05T02:21:02.463Z,91897.00
2024-01-05T02:22:02.326Z,91894.00
2024-01-05T02:23:02.292Z,91890.00
2024-01-05T02:24:02.463Z,91884.00
2024-01-05T02:25:02.362Z,91886.00
2024-01-05T02:26:02.501Z,91875.00
2024-01-05T02:27:02.506Z,91872.00
2024-01-05T02:28:02.343Z,91869.00
2024-01-05T02:29:02.345Z,91864.00
2024-01-05T02:30:02.393Z,91855.00
2024-01-05T02:31:02.611Z,91849.00
2024-01-05T02:32:02.357Z,91845.00
2024-01-05T02:33:02.440Z,91850.00
2024-01-05T02:34:02.412Z,91848.00
2024-01-05T02:35:02.455Z,91848.00
2024-01-05T02:36:02.362Z,91848.00
2024-01-05T02:37:02.314Z,91854.00
2024-01-05T02:38:02.316Z,91853.00
2024-01-05T02:39:02.333Z,91854.00
2024-01-05T02:40:02.301Z,91858.00
2024-01-05T02:41:02.283Z,91858.00
2024-01-05T02:42:02.330Z,91859.00
2024-01-05T02:43:02.268Z,91857.00
2024-01-05T02:44:02.268Z,91857.00
2024-01-05T02:45:02.283Z,91861.00
2024-01-05T02:46:02.233Z,91858.00
2024-01-05T02:47:02.224Z,91858.00
2024-01-05T02:48:02.631Z,91854.00
2024-01-05T02:49:02.346Z,91850.00
2024-01-05T02:50:02.183Z,91845.00
2024-01-05T02:51:02.243Z,91841.00
2024-01-05T02:52:02.152Z,91834.00
2024-01-05T02:53:02.158Z,91829.00
2024-01-05T02:54:02.189Z,91824.00
2024-01-05T02:55:02.128Z,91826.00
2024-01-05T02:56:02.119Z,91829.00
2024-01-05T02:57:02.136Z,91833.00
2024-01-05T02:58:02.090Z,91836.00
2024-01-05T02:59:02.080Z,91838.00
2024-01-05T03:00:02.126Z,91833.00
2024-01-05T03:01:02.147Z,91825.00
2024-01-05T03:02:02.057Z,91821.00
2024-01-05T03:03:02.062Z,91818.00
2024-01-05T03:04:02.475Z,91818.00
2024-01-05T03:05:02.075Z,91813.00
2024-01-05T03:06:02.078Z,91813.00
2024-01-05T03:07:02.050Z,91815.00
2024-01-05T03:08:02.061Z,91814.00
2024-01-05T03:09:02.096Z,91818.00
2024-01-05T03:10:02.044Z,91828.00
2024-01-05T03:11:02.031Z,91826.00
2024-01-05T03:12:02.080Z,91828.00
2024-01-05T03:13:02.021Z,91826.00
2024-01-05T03:14:01.998Z,91826.00
2024-01-05T03:15:02.058Z,91827.00
2024-01-05T03:16:01.974Z,91820.00
2024-01-05T03:17:01.980Z,91814.00
2024-01-05T03:18:02.292Z,91816.00
2024-01-05T03:19:02.232Z,91812.00
2024-01-05T03:20:02.296Z,91812.00
2024-01-05T03:21:02.092Z,91814.00
2024-01-05T03:22:02.046Z,91821.00
2024-01-05T03:23:02.028Z,91820.00
2024-01-05T03:24:02.081Z,91816.00
2024-01-05T03:25:02.049Z,91809.00
2024-01-05T03:26:02.052Z,91802.00
2024-01-05T03:27:02.056Z,91800.00
2024-01-05T03:28:01.994Z,91798.00
2024-01-05T03:29:02.017Z,91801.00
2024-01-05T03:30:02.139Z,91800.00
2024-01-05T03:31:02.184Z,91789.00
2024-01-05T03:32:01.997Z,91786.00
2024-01-05T03:33:02.262Z,91788.00
2024-01-05T03:34:02.299Z,91783.00
2024-01-05T03:35:02.030Z,91781.00
2024-01-05T03:36:02.194Z,91778.00
2024-01-05T03:37:02.110Z,91784.00
2024-01-05T03:38:02.096Z,91776.00
2024-01-05T03:39:02.287Z,91773.00
2024-01-05T03:40:02.090Z,91774.00
2024-01-05T03:41:02.059Z,91772.00
2024-01-05T03:42:02.093Z,91772.00
2024-01-05T03:43:02.032Z,91764.00
2024-01-05T03:44:02.073Z,91761.00
2024-01-05T03:45:02.276Z,91757.00
2024-01-05T03:46:02.002Z,91752.00
2024-01-05T03:47:02.001Z,91749.00
2024-01-05T03:48:02.320Z,91745.00
2024-01-05T03:49:02.199Z,91742.00
2024-01-05T03:50:02.099Z,91740.00
2024-01-05T03:51:02.090Z,91738.00
2024-01-05T03:52:01.996Z,91737.00
2024-01-05T03:53:02.058Z,91735.00
2024-01-05T03:54:02.077Z,91734.00
2024-01-05T03:55:02.030Z,91732.00
2024-01-05T03:56:02.014Z,91731.00
2024-01-05T03:57:02.036Z,91735.00
2024-01-05T03:58:02.033Z,91733.00
2024-01-05T03:59:02.036Z,91732.00
2024-01-05T04:00:02.042Z,91725.00
2024-01-05T04:01:02.064Z,91727.00
2024-01-05T04:02:02.076Z,91726.00
2024-01-05T04:03:02.241Z,91727.00
2024-01-05T04:04:02.247Z,91729.00
2024-01-05T04:05:02.182Z,91731.00
2024-01-05T04:06:02.152Z,91734.00
2024-01-05T04:07:02.065Z,91736.00
2024-01-05T04:08:02.068Z,91736.00
2024-01-05T04:09:02.163Z,91742.00
2024-01-05T04:10:02.168Z,91744.00
2024-01-05T04:11:02.062Z,91742.00
2024-01-05T04:12:02.161Z,91737.00
2024-01-05T04:13:02.075Z,91730.00
2024-01-05T04:14:02.062Z,91729.00
2024-01-05T04:15:02.095Z,91732.00
2024-01-05T04:16:02.049Z,91734.00
2024-01-05T04:17:02.106Z,91734.00
2024-01-05T04:18:02.178Z,91739.00
2024-01-05T04:19:02.147Z,91744.00
2024-01-05T04:20:02.124Z,91749.00
2024-01-05T04:21:02.145Z,91753.00
2024-01-05T04:22:02.141Z,91753.00
2024-01-05T04:23:01.987Z,91751.00
2024-01-05T04:24:02.042Z,91746.00
2024-01-05T04:25:02.199Z,91744.00
2024-01-05T04:26:02.248Z,91745.00
2024-01-05T04:27:02.279Z,91745.00
2024-01-05T04:28:02.153Z,91746.00
2024-01-05T04:29:02.164Z,91746.00
2024-01-05T04:30:02.345Z,91748.00
2024-01-05T04:31:02.359Z,91744.00
2024-01-05T04:32:02.180Z,91742.00
2024-01-05T04:33:02.179Z,91738.00
2024-01-05T04:34:02.809Z,91737.00
2024-01-05T04:35:02.160Z,91738.00
2024-01-05T04:36:02.242Z,91736.00
2024-01-05T04:37:02.249Z,91736.00
2024-01-05T04:38:02.285Z,91733.00
2024-01-05T04:39:02.402Z,91733.00
2024-01-05T04:40:02.369Z,91730.00
2024-01-05T04:41:02.358Z,91727.00
2024-01-05T04:42:02.494Z,91724.00
2024-01-05T04:43:02.337Z,91719.00
2024-01-05T04:44:02.343Z,91723.00
2024-01-05T04:45:02.452Z,91726.00
2024-01-05T04:46:02.348Z,91724.00
2024-01-05T04:47:02.299Z,91722.00
2024-01-05T04:48:02.483Z,91719.00
2024-01-05T04:49:02.404Z,91721.00
2024-01-05T04:50:02.261Z,91725.00
2024-01-05T04:51:02.290Z,91729.00
2024-01-05T04:52:02.322Z,91725.00
2024-01-05T04:53:02.311Z,91724.00
2024-01-05T04:54:02.270Z,91723.00
2024-01-05T04:55:02.323Z,91718.00
2024-01-05T04:56:02.284Z,91716.00
2024-01-05T04:57:02.297Z,91715.00
2024-01-05T04:58:02.310Z,91712.00
2024-01-05T04:59:02.300Z,91716.00
2024-01-05T05:00:02.366Z,91713.00
2024-01-05T05:01:02.307Z,91717.00
2024-01-05T05:02:02.241Z,91717.00
2024-01-05T05:03:02.422Z,91716.00
2024-01-05T05:04:02.311Z,91713.00
2024-01-05T05:05:02.258Z,91708.00
2024-01-05T05:06:02.351Z,91704.00
2024-01-05T05:07:02.223Z,91705.00
2024-01-05T05:08:02.275Z,91710.00
2024-01-05T05:09:02.330Z,91710.00
2024-01-05T05:10:02.351Z,91711.00
2024-01-05T05:11:02.205Z,91715.00
2024-01-05T05:12:09.631Z,91714.00
2024-01-05T05:13:09.588Z,91715.00
2024-01-05T05:14:09.575Z,91715.00
2024-01-05T05:15:09.596Z,91715.00
2024-01-05T05:16:09.537Z,91712.00
2024-01-05T05:17:09.527Z,91712.00
2024-01-05T05:18:09.621Z,91708.00
2024-01-05T05:19:09.659Z,91707.00
2024-01-05T05:20:09.481Z,91707.00
2024-01-05T05:21:09.493Z,91707.00
2024-01-05T05:22:09.459Z,91710.00
2024-01-05T05:23:09.444Z,91716.00
2024-01-05T05:24:09.441Z,91711.00
2024-01-05T05:25:09.396Z,91714.00
2024-01-05T05:26:09.386Z,91714.00
2024-01-05T05:27:09.393Z,91710.00
2024-01-05T05:28:09.376Z,91707.00
2024-01-05T05:29:10.216Z,91704.00
2024-01-05T05:30:09.436Z,91701.00
2024-01-05T05:31:09.444Z,91699.00
2024-01-05T05:32:09.304Z,91705.00
2024-01-05T05:33:09.372Z,91708.00
2024-01-05T05:34:09.394Z,91709.00
2024-01-05T05:35:09.259Z,91708.00
2024-01-05T05:36:09.269Z,91707.00
2024-01-05T05:37:09.251Z,91705.00
2024-01-05T05:38:09.208Z,91699.00
2024-01-05T05:39:09.238Z,91697.00
2024-01-05T05:40:09.193Z,91696.00
2024-01-05T05:41:09.174Z,91697.00
2024-01-05T05:42:09.190Z,91696.00
2024-01-05T05:43:09.148Z,91695.00
2024-01-05T05:44:09.146Z,91695.00
2024-01-05T05:45:09.188Z,91695.00
2024-01-05T05:46:09.112Z,91699.00
2024-01-05T05:47:09.104Z,91702.00
2024-01-05T05:48:09.192Z,91704.00
2024-01-05T05:49:09.125Z,91702.00
2024-01-05T05:50:09.044Z,91703.00
2024-01-05T05:51:09.057Z,91703.00
2024-01-05T05:52:09.023Z,91703.00
2024-01-05T05:53:09.005Z,91702.00
2024-01-05T05:54:09.045Z,91703.00
2024-01-05T05:55:09.720Z,91703.00
2024-01-05T05:56:08.966Z,91702.00
2024-01-05T05:57:09.017Z,91704.00
2024-01-05T05:58:08.940Z,91702.00
2024-01-05T05:59:08.927Z,91705.00
2024-01-05T06:00:09.976Z,91705.00
2024-01-05T06:01:08.928Z,91705.00
2024-01-05T06:02:08.903Z,91704.00
2024-01-05T06:03:11.665Z,91706.00
2024-01-05T06:04:09.135Z,91708.00
2024-01-05T06:05:08.879Z,91712.00
2024-01-05T06:06:08.929Z,91715.00
2024-01-05T06:07:08.960Z,91717.00
2024-01-05T06:08:08.855Z,91720.00
2024-01-05T06:09:08.918Z,91720.00
2024-01-05T06:10:08.847Z,91720.00
2024-01-05T06:11:08.823Z,91720.00
2024-01-05T06:12:08.869Z,91718.00
2024-01-05T06:13:08.813Z,91717.00
2024-01-05T06:14:08.805Z,91715.00
2024-01-05T06:15:08.837Z,91715.00
2024-01-05T06:16:08.803Z,91715.00
2024-01-05T06:17:08.790Z,91715.00
2024-01-05T06:18:08.977Z,91717.00
2024-01-05T06:19:08.863Z,91719.00
2024-01-05T06:20:08.768Z,91720.00
2024-01-05T06:21:08.828Z,91720.00
2024-01-05T06:22:08.752Z,91720.00
2024-01-05T06:23:08.900Z,91720.00
2024-01-05T06:24:08.878Z,91718.00
2024-01-05T06:25:08.729Z,91717.00
2024-01-05T06:26:08.723Z,91716.00
2024-01-05T06:27:08.730Z,91713.00
2024-01-05T06:28:08.718Z,91712.00
2024-01-05T06:29:08.685Z,91713.00
2024-01-05T06:30:08.802Z,91715.00
2024-01-05T06:31:08.867Z,91714.00
2024-01-05T06:32:08.702Z,91716.00
2024-01-05T06:33:08.910Z,91716.00
2024-01-05T06:34:08.683Z,91717.00
2024-01-05T06:35:08.733Z,91716.00
2024-01-05T06:36:08.718Z,91715.00
2024-01-05T06:37:08.613Z,91717.00
2024-01-05T06:38:08.587Z,91715.00
2024-01-05T06:39:08.685Z,91714.00
2024-01-05T06:40:08.608Z,91716.00
2024-01-05T06:41:08.624Z,91714.00
2024-01-05T06:42:09.292Z,91715.00
2024-01-05T06:43:08.609Z,91715.00
2024-01-05T06:44:08.519Z,91713.00
2024-01-05T06:45:08.625Z,91712.00
2024-01-05T06:46:08.505Z,91714.00
2024-01-05T06:47:08.501Z,91713.00
2024-01-05T06:48:08.675Z,91712.00
2024-01-05T06:49:08.787Z,91712.00
2024-01-05T06:50:08.617Z,91709.00
2024-01-05T06:51:08.468Z,91709.00
2024-01-05T06:52:08.750Z,91708.00
2024-01-05T06:53:08.468Z,91708.00
2024-01-05T06:54:08.524Z,91708.00
2024-01-05T06:55:08.515Z,91706.00
2024-01-05T06:56:08.565Z,91707.00
2024-01-05T06:57:08.641Z,91712.00
2024-01-05T06:58:08.491Z,91715.00
2024-01-05T06:59:08.578Z,91714.00
2024-01-05T07:00:08.651Z,91716.00
2024-01-05T07:01:08.607Z,91712.00
2024-01-05T07:02:08.496Z,91712.00
2024-01-05T07:03:08.687Z,91712.00
2024-01-05T07:04:08.561Z,91710.00
2024-01-05T07:05:08.516Z,91709.00
2024-01-05T07:06:08.500Z,91709.00
2024-01-05T07:07:08.501Z,91710.00
2024-01-05T07:08:08.493Z,91709.00
2024-01-05T07:09:08.553Z,91710.00
2024-01-05T07:10:08.520Z,91709.00
2024-01-05T07:11:08.533Z,91708.00
2024-01-05T07:12:08.561Z,91709.00
2024-01-05T07:13:08.604Z,91713.00
2024-01-05T07:14:08.613Z,91714.00
2024-01-05T07:15:08.681Z,91716.00
2024-01-05T07:16:08.616Z,91719.00
2024-01-05T07:17:08.619Z,91716.00
2024-01-05T07:18:08.830Z,91716.00
2024-01-05T07:19:08.792Z,91715.00
2024-01-05T07:20:08.661Z,91715.00
2024-01-05T07:21:08.679Z,91712.00
2024-01-05T07:22:08.639Z,91710.00
2024-01-05T07:23:08.664Z,91708.00
2024-01-05T07:24:08.703Z,91708.00
2024-01-05T07:25:08.706Z,91707.00
2024-01-05T07:26:08.753Z,91704.00
2024-01-05T07:27:08.821Z,91706.00
2024-01-05T07:28:08.820Z,91708.00
2024-01-05T07:29:08.859Z,91711.00
2024-01-05T07:30:08.958Z,91712.00
2024-01-05T07:31:08.947Z,91713.00
2024-01-05T07:32:08.925Z,91716.00
2024-01-05T07:33:09.041Z,91714.00
2024-01-05T07:34:09.071Z,91714.00
2024-01-05T07:35:08.966Z,91712.00
2024-01-05T07:36:08.978Z,91710.00
2024-01-05T07:37:08.992Z,91710.00
2024-01-05T07:38:09.013Z,91710.00
2024-01-05T07:39:09.045Z,91711.00
2024-01-05T07:40:09.056Z,91712.00
2024-01-05T07:41:09.063Z,91713.00
2024-01-05T07:42:09.109Z,91712.00
2024-01-05T07:43:09.140Z,91709.00
2024-01-05T07:44:09.143Z,91708.00
2024-01-05T07:45:09.331Z,91706.00
2024-01-05T07:46:09.180Z,91704.00
2024-01-05T07:47:09.169Z,91703.00
2024-01-05T07:48:09.354Z,91701.00
2024-01-05T07:49:09.351Z,91702.00
2024-01-05T07:50:09.217Z,91701.00
2024-01-05T07:51:09.260Z,91704.00
2024-01-05T07:52:09.249Z,91701.00
2024-01-05T07:53:09.253Z,91701.00
2024-01-05T07:54:09.386Z,91702.00
2024-01-05T07:55:09.296Z,91701.00
2024-01-05T07:56:09.301Z,91699.00
2024-01-05T07:57:09.304Z,91697.00
2024-01-05T07:58:09.383Z,91695.00
2024-01-05T07:59:09.298Z,91694.00
2024-01-05T08:00:09.353Z,91691.00
2024-01-05T08:01:09.343Z,91691.00
2024-01-05T08:02:09.340Z,91691.00
2024-01-05T08:03:09.414Z,91691.00
2024-01-05T08:04:09.588Z,91690.00
2024-01-05T08:05:09.384Z,91687.00
2024-01-05T08:06:09.442Z,91688.00
2024-01-05T08:07:09.491Z,91689.00
2024-01-05T08:08:09.421Z,91689.00
2024-01-05T08:09:09.516Z,91685.00
2024-01-05T08:10:09.428Z,91685.00
2024-01-05T08:11:09.432Z,91686.00
2024-01-05T08:12:09.446Z,91681.00
2024-01-05T08:13:09.421Z,91678.00
2024-01-05T08:14:09.428Z,91675.00
2024-01-05T08:15:09.534Z,91674.00
2024-01-05T08:16:09.460Z,91673.00
2024-01-05T08:17:09.479Z,91670.00
2024-01-05T08:18:09.513Z,91671.00
2024-01-05T08:19:09.560Z,91669.00
2024-01-05T08:20:09.429Z,91669.00
2024-01-05T08:21:09.452Z,91671.00
2024-01-05T08:22:09.445Z,91674.00
2024-01-05T08:23:09.449Z,91678.00
2024-01-05T08:24:09.491Z,91678.00
2024-01-05T08:25:09.533Z,91679.00
2024-01-05T08:26:09.464Z,91676.00
2024-01-05T08:27:09.509Z,91674.00
2024-01-05T08:28:09.436Z,91672.00
2024-01-05T08:29:09.473Z,91668.00
2024-01-05T08:30:09.606Z,91669.00
2024-01-05T08:31:09.696Z,91665.00
2024-01-05T08:32:09.538Z,91666.00
2024-01-05T08:33:09.661Z,91664.00
2024-01-05T08:34:09.754Z,91660.00
2024-01-05T08:35:09.637Z,91659.00
2024-01-05T08:36:09.679Z,91660.00
2024-01-05T08:37:09.653Z,91658.00
2024-01-05T08:38:09.701Z,91659.00
2024-01-05T08:39:09.748Z,91660.00
2024-01-05T08:40:09.745Z,91660.00
2024-01-05T08:41:09.777Z,91661.00
2024-01-05T08:42:10.099Z,91662.00
2024-01-05T08:43:09.889Z,91663.00
2024-01-05T08:44:09.913Z,91661.00
2024-01-05T08:45:09.943Z,91664.00
2024-01-05T08:46:09.917Z,91665.00
2024-01-05T08:47:09.948Z,91665.00
2024-01-05T08:48:10.131Z,91663.00
2024-01-05T08:49:10.073Z,91663.00
2024-01-05T08:50:10.138Z,91662.00
2024-01-05T08:51:10.143Z,91659.00
2024-01-05T08:52:10.348Z,91657.00
2024-01-05T08:53:10.144Z,91656.00
2024-01-05T08:54:10.172Z,91655.00
2024-01-05T08:55:10.161Z,91657.00
2024-01-05T08:56:10.184Z,91658.00
2024-01-05T08:57:10.210Z,91659.00
2024-01-05T08:58:10.285Z,91661.00
2024-01-05T08:59:10.222Z,91662.00
2024-01-05T09:00:10.272Z,91659.00
2024-01-05T09:01:10.350Z,91657.00
2024-01-05T09:02:10.607Z,91653.00
2024-01-05T09:03:10.402Z,91652.00
2024-01-05T09:04:10.300Z,91649.00
2024-01-05T09:05:10.508Z,91651.00
2024-01-05T09:06:10.400Z,91650.00
2024-01-05T09:07:10.453Z,91652.00
2024-01-05T09:08:10.460Z,91654.00
2024-01-05T09:09:10.594Z,91654.00
2024-01-05T09:10:10.530Z,91654.00
2024-01-05T09:11:10.544Z,91653.00
2024-01-05T09:12:10.859Z,91655.00
2024-01-05T09:13:10.580Z,91655.00
2024-01-05T09:14:10.612Z,91656.00
2024-01-05T09:15:10.654Z,91654.00
2024-01-05T09:16:10.600Z,91654.00
2024-01-05T09:17:10.652Z,91655.00
2024-01-05T09:18:10.846Z,91651.00
2024-01-05T09:19:10.780Z,91653.00
2024-01-05T09:20:10.797Z,91653.00
2024-01-05T09:21:10.826Z,91652.00
2024-01-05T09:22:11.138Z,91653.00
2024-01-05T09:23:10.880Z,91653.00
2024-01-05T09:24:10.932Z,91657.00
2024-01-05T09:25:10.996Z,91659.00
2024-01-05T09:26:10.999Z,91661.00
2024-01-05T09:27:11.075Z,91664.00
2024-01-05T09:28:11.080Z,91663.00
2024-01-05T09:29:11.125Z,91663.00
2024-01-05T09:30:11.222Z,91662.00
2024-01-05T09:31:11.369Z,91664.00
2024-01-05T09:32:11.672Z,91666.00
2024-01-05T09:33:11.399Z,91665.00
2024-01-05T09:34:11.462Z,91663.00
2024-01-05T09:35:11.344Z,91662.00
2024-01-05T09:36:11.462Z,91660.00
2024-01-05T09:37:11.386Z,91660.00
2024-01-05T09:38:11.442Z,91661.00
2024-01-05T09:39:11.575Z,91661.00
2024-01-05T09:40:11.596Z,91665.00
2024-01-05T09:41:11.630Z,91666.00
2024-01-05T09:42:11.968Z,91668.00
2024-01-05T09:43:11.706Z,91668.00
2024-01-05T09:44:11.738Z,91665.00
2024-01-05T09:45:11.811Z,91662.00
2024-01-05T09:46:11.840Z,91660.00
2024-01-05T09:47:11.889Z,91658.00
2024-01-05T09:48:12.023Z,91658.00
2024-01-05T09:49:12.038Z,91658.00
2024-01-05T09:50:12.003Z,91659.00
2024-01-05T09:51:11.887Z,91659.00
2024-01-05T09:52:12.205Z,91655.00
2024-01-05T09:53:11.979Z,91652.00
2024-01-05T09:54:12.014Z,91648.00
2024-01-05T09:55:12.013Z,91645.00
2024-01-05T09:56:12.083Z,91645.00
2024-01-05T09:57:12.110Z,91643.00
2024-01-05T09:58:12.070Z,91643.00
2024-01-05T09:59:12.109Z,91642.00
2024-01-05T10:00:12.156Z,91641.00
2024-01-05T10:01:12.174Z,91641.00
2024-01-05T10:02:12.145Z,91640.00
2024-01-05T10:03:12.208Z,91642.00
2024-01-05T10:04:12.267Z,91641.00
2024-01-05T10:05:12.243Z,91641.00
2024-01-05T10:06:12.369Z,91638.00
2024-01-05T10:07:12.513Z,91635.00
2024-01-05T10:08:12.344Z,91627.00
2024-01-05T10:09:12.363Z,91623.00
2024-01-05T10:10:12.353Z,91617.00
2024-01-05T10:11:12.362Z,91613.00
2024-01-05T10:12:12.410Z,91609.00
2024-01-05T10:13:12.410Z,91607.00
2024-01-05T10:14:12.423Z,91606.00
2024-01-05T10:15:12.440Z,91602.00
2024-01-05T10:16:12.423Z,91605.00
2024-01-05T10:17:12.417Z,91603.00
2024-01-05T10:18:12.518Z,91601.00
2024-01-05T10:19:12.572Z,91601.00
2024-01-05T10:20:12.489Z,91599.00
2024-01-05T10:21:12.602Z,91598.00
2024-01-05T10:22:12.532Z,91597.00
2024-01-05T10:23:12.573Z,91594.00
2024-01-05T10:24:12.618Z,91591.00
2024-01-05T10:25:12.664Z,91591.00
2024-01-05T10:26:12.736Z,91591.00
2024-01-05T10:27:12.837Z,91592.00
2024-01-05T10:28:12.789Z,91593.00
2024-01-05T10:29:12.830Z,91591.00
2024-01-05T10:30:12.989Z,91590.00
2024-01-05T10:31:13.027Z,91587.00
2024-01-05T10:32:12.976Z,91586.00
2024-01-05T10:33:13.130Z,91584.00
2024-01-05T10:34:13.157Z,91583.00
2024-01-05T10:35:13.116Z,91583.00
2024-01-05T10:36:13.200Z,91585.00
2024-01-05T10:37:13.243Z,91585.00
2024-01-05T10:38:13.305Z,91588.00
2024-01-05T10:39:13.387Z,91589.00
2024-01-05T10:40:13.416Z,91590.00
2024-01-05T10:41:13.475Z,91589.00
2024-01-05T10:42:13.541Z,91588.00
2024-01-05T10:43:13.572Z,91585.00
2024-01-05T10:44:13.641Z,91584.00
2024-01-05T10:45:13.726Z,91584.00
2024-01-05T10:46:13.749Z,91578.00
2024-01-05T10:47:13.820Z,91577.00
2024-01-05T10:48:13.979Z,91573.00
2024-01-05T10:49:14.020Z,91569.00
2024-01-05T10:50:14.058Z,91566.00
2024-01-05T10:51:14.028Z,91566.00
2024-01-05T10:52:14.058Z,91566.00
2024-01-05T10:53:14.094Z,91565.00
2024-01-05T10:54:14.234Z,91564.00
2024-01-05T10:55:14.202Z,91559.00
2024-01-05T10:56:14.266Z,91557.00
2024-01-05T10:57:14.360Z,91549.00
2024-01-05T10:58:14.334Z,91545.00
2024-01-05T10:59:14.377Z,91540.00
2024-01-05T11:00:14.561Z,91539.00
2024-01-05T11:01:14.593Z,91536.00
2024-01-05T11:02:14.524Z,91534.00
2024-01-05T11:03:14.676Z,91533.00
2024-01-05T11:04:14.701Z,91530.00
2024-01-05T11:05:15.585Z,91526.00
2024-01-05T11:06:14.785Z,91527.00
2024-01-05T11:07:14.880Z,91522.00
2024-01-05T11:08:14.805Z,91520.00
2024-01-05T11:09:14.867Z,91517.00
2024-01-05T11:10:14.918Z,91513.00
2024-01-05T11:11:14.980Z,91510.00
2024-01-05T11:12:15.025Z,91504.00
2024-01-05T11:13:15.070Z,91501.00
2024-01-05T11:14:15.194Z,91499.00
2024-01-05T11:15:15.239Z,91496.00
2024-01-05T11:16:15.223Z,91493.00
2024-01-05T11:17:15.277Z,91491.00
2024-01-05T11:18:15.370Z,91489.00
2024-01-05T11:19:15.419Z,91488.00
2024-01-05T11:20:15.408Z,91487.00
2024-01-05T11:21:15.508Z,91485.00
2024-01-05T11:22:15.506Z,91483.00
2024-01-05T11:23:15.564Z,91480.00
2024-01-05T11:24:17.626Z,91479.00
2024-01-05T11:25:15.590Z,91478.00
2024-01-05T11:26:15.563Z,91472.00
2024-01-05T11:27:15.582Z,91469.00
2024-01-05T11:28:15.540Z,91466.00
2024-01-05T11:29:15.525Z,91468.00
2024-01-05T11:30:15.595Z,91467.00
2024-01-05T11:31:15.626Z,91467.00
2024-01-05T11:32:15.510Z,91465.00
2024-01-05T11:33:18.407Z,91463.00
2024-01-05T11:34:16.586Z,91463.00
2024-01-05T11:35:15.458Z,91465.00
2024-01-05T11:36:15.432Z,91464.00
2024-01-05T11:37:15.429Z,91462.00
2024-01-05T11:38:15.401Z,91461.00
2024-01-05T11:39:15.431Z,91460.00
2024-01-05T11:40:15.378Z,91457.00
2024-01-05T11:41:15.355Z,91454.00
2024-01-05T11:42:15.336Z,91453.00
2024-01-05T11:43:15.376Z,91452.00
2024-01-05T11:44:15.418Z,91452.00
2024-01-05T11:45:15.528Z,91450.00